createdAt,value
2019-05-19T17:35:57.373Z,31.04
2019-05-19T17:38:26.903Z,30.93
2019-05-19T17:39:26.785Z,31.08
2019-05-19T17:40:26.702Z,31.01
2019-05-19T17:41:26.620Z,31.29
2019-05-19T17:42:26.540Z,31.48
2019-05-19T17:43:26.486Z,31.60
2019-05-19T17:44:26.386Z,31.82
2019-05-19T17:45:26.328Z,31.91
2019-05-19T17:46:26.250Z,32.08
2019-05-19T17:47:26.177Z,31.66
2019-05-19T17:48:27.040Z,31.26
2019-05-19T17:49:26.040Z,31.20
2019-05-19T17:50:25.961Z,31.23
2019-05-19T17:51:25.893Z,31.44
2019-05-19T17:52:25.791Z,31.22
2019-05-19T17:53:25.732Z,31.19
2019-05-19T17:54:25.685Z,31.26
2019-05-19T17:55:25.585Z,31.46
2019-05-19T17:56:25.520Z,31.44
2019-05-19T17:57:25.434Z,31.24
2019-05-19T17:58:25.364Z,31.07
2019-05-19T17:59:26.308Z,30.70
2019-05-19T18:00:25.275Z,30.05
2019-05-19T18:01:25.183Z,28.75
2019-05-19T18:02:25.116Z,27.83
2019-05-19T18:03:25.000Z,26.94
2019-05-19T18:04:24.961Z,26.07
2019-05-19T18:05:24.869Z,25.82
2019-05-19T18:06:24.798Z,25.51
2019-05-19T18:07:24.715Z,25.23
2019-05-19T18:08:24.655Z,25.08
2019-05-19T18:09:24.562Z,25.08
2019-05-19T18:10:24.490Z,24.85
2019-05-19T18:11:24.432Z,24.51
2019-05-19T18:12:24.352Z,24.33
2019-05-19T18:13:24.298Z,24.25
2019-05-19T18:14:24.190Z,24.07
2019-05-19T18:15:24.126Z,23.91
2019-05-19T18:16:24.062Z,23.78
2019-05-19T18:17:23.978Z,23.79
2019-05-19T18:18:23.888Z,23.54
2019-05-19T18:19:23.805Z,23.44
2019-05-19T18:20:24.428Z,23.33
2019-05-19T18:21:23.674Z,23.39
2019-05-19T18:22:23.591Z,23.41
2019-05-19T18:23:23.524Z,23.36
2019-05-19T18:24:23.436Z,23.56
2019-05-19T18:25:23.375Z,23.63
2019-05-19T18:26:23.277Z,23.67
2019-05-19T18:27:23.187Z,23.56
2019-05-19T18:28:23.127Z,23.61
2019-05-19T18:29:30.938Z,23.54
2019-05-19T18:30:22.958Z,23.52
2019-05-19T18:31:22.889Z,23.42
2019-05-19T18:32:22.806Z,23.45
2019-05-19T18:33:22.768Z,23.31
2019-05-19T18:34:22.647Z,23.14
2019-05-19T18:35:22.564Z,23.10
2019-05-19T18:36:22.481Z,22.96
2019-05-19T18:37:22.414Z,23.01
2019-05-19T18:38:22.320Z,22.83
2019-05-19T18:39:22.266Z,22.85
2019-05-19T18:40:22.176Z,22.67
2019-05-19T18:41:22.096Z,22.56
2019-05-19T18:42:22.040Z,22.49
2019-05-19T18:43:21.934Z,22.51
2019-05-19T18:44:21.863Z,22.46
2019-05-19T18:45:21.815Z,22.36
2019-05-19T18:46:21.733Z,22.28
2019-05-19T18:47:21.622Z,22.19
2019-05-19T18:48:23.318Z,22.11
2019-05-19T18:49:21.484Z,22.03
2019-05-19T18:50:21.383Z,21.90
2019-05-19T18:51:21.295Z,21.85
2019-05-19T18:52:21.327Z,21.75
2019-05-19T18:53:21.150Z,21.58
2019-05-19T18:54:21.049Z,21.51
2019-05-19T18:55:20.987Z,21.41
2019-05-19T18:56:20.887Z,21.38
2019-05-19T18:57:20.842Z,21.14
2019-05-19T18:58:20.729Z,21.01
2019-05-19T18:59:20.654Z,20.97
2019-05-19T19:00:20.566Z,20.89
2019-05-19T19:01:20.511Z,20.85
2019-05-19T19:02:20.405Z,20.77
2019-05-19T19:03:20.329Z,20.58
2019-05-19T19:04:20.261Z,20.56
2019-05-19T19:05:20.180Z,20.61
2019-05-19T19:06:20.124Z,20.50
2019-05-19T19:07:20.005Z,20.33
2019-05-19T19:08:20.152Z,20.29
2019-05-19T19:09:19.839Z,20.34
2019-05-19T19:10:19.759Z,20.17
2019-05-19T19:11:19.724Z,20.12
2019-05-19T19:12:19.687Z,19.99
2019-05-19T19:13:19.550Z,19.92
2019-05-19T19:14:19.450Z,19.92
2019-05-19T19:15:19.367Z,19.81
2019-05-19T19:16:19.297Z,19.70
2019-05-19T19:17:19.191Z,19.57
2019-05-19T19:18:19.122Z,19.41
2019-05-19T19:19:19.042Z,19.52
2019-05-19T19:20:18.958Z,19.50
2019-05-19T19:21:18.883Z,19.41
2019-05-19T19:22:18.815Z,19.26
2019-05-19T19:23:18.699Z,19.31
2019-05-19T19:24:18.639Z,19.17
2019-05-19T19:25:18.539Z,19.07
2019-05-19T19:26:18.513Z,19.05
2019-05-19T19:27:18.396Z,18.93
2019-05-19T19:28:18.312Z,18.86
2019-05-19T19:29:18.215Z,18.66
2019-05-19T19:30:18.128Z,18.63
2019-05-19T19:31:18.056Z,18.54
2019-05-19T19:32:17.982Z,18.42
2019-05-19T19:33:17.904Z,18.27
2019-05-19T19:34:17.810Z,18.24
2019-05-19T19:35:17.744Z,18.15
2019-05-19T19:36:17.636Z,18.11
2019-05-19T19:37:17.561Z,18.01
2019-05-19T19:38:17.486Z,18.02
2019-05-19T19:39:17.411Z,17.91
2019-05-19T19:40:17.320Z,17.84
2019-05-19T19:41:17.255Z,17.86
2019-05-19T19:42:17.149Z,17.78
2019-05-19T19:43:17.063Z,17.79
2019-05-19T19:44:16.989Z,17.73
2019-05-19T19:45:16.912Z,17.69
2019-05-19T19:46:16.822Z,17.63
2019-05-19T19:47:16.741Z,17.52
2019-05-19T19:48:16.656Z,17.50
2019-05-19T19:49:16.564Z,17.53
2019-05-19T19:50:16.492Z,17.47
2019-05-19T19:51:16.406Z,17.34
2019-05-19T19:52:16.324Z,17.38
2019-05-19T19:53:16.234Z,17.37
2019-05-19T19:54:16.186Z,17.27
2019-05-19T19:55:16.090Z,17.25
2019-05-19T19:56:16.010Z,17.07
2019-05-19T19:57:15.927Z,17.12
2019-05-19T19:58:15.830Z,17.12
2019-05-19T19:59:15.762Z,17.10
2019-05-19T20:00:18.524Z,16.97
2019-05-19T20:01:15.582Z,16.97
2019-05-19T20:02:15.511Z,16.95
2019-05-19T20:03:15.415Z,16.99
2019-05-19T20:04:15.339Z,16.99
2019-05-19T20:05:15.252Z,16.95
2019-05-19T20:06:15.175Z,16.82
2019-05-19T20:07:15.076Z,16.76
2019-05-19T20:08:14.999Z,16.74
2019-05-19T20:09:14.909Z,16.70
2019-05-19T20:10:14.823Z,16.70
2019-05-19T20:11:14.758Z,16.65
2019-05-19T20:12:14.652Z,16.62
2019-05-19T20:13:14.595Z,16.67
2019-05-19T20:14:14.490Z,16.62
2019-05-19T20:15:14.420Z,16.59
2019-05-19T20:16:14.326Z,16.64
2019-05-19T20:17:14.248Z,16.55
2019-05-19T20:18:14.161Z,16.54
2019-05-19T20:19:14.083Z,16.46
2019-05-19T20:20:13.999Z,16.37
2019-05-19T20:21:13.909Z,16.36
2019-05-19T20:22:13.824Z,16.37
2019-05-19T20:23:13.753Z,16.28
2019-05-19T20:24:13.657Z,16.21
2019-05-19T20:25:13.569Z,16.16
2019-05-19T20:26:13.501Z,16.16
2019-05-19T20:27:13.425Z,16.16
2019-05-19T20:28:13.325Z,16.13
2019-05-19T20:29:13.242Z,16.13
2019-05-19T20:30:13.157Z,16.10
2019-05-19T20:31:13.095Z,16.16
2019-05-19T20:32:12.985Z,16.05
2019-05-19T20:33:12.902Z,16.00
2019-05-19T20:34:12.821Z,15.90
2019-05-19T20:35:12.745Z,15.88
2019-05-19T20:36:12.647Z,15.88
2019-05-19T20:37:15.153Z,15.85
2019-05-19T20:38:12.486Z,15.87
2019-05-19T20:39:12.396Z,15.85
2019-05-19T20:40:12.311Z,15.85
2019-05-19T20:41:12.231Z,15.80
2019-05-19T20:42:12.144Z,15.72
2019-05-19T20:43:12.080Z,15.72
2019-05-19T20:44:11.981Z,15.78
2019-05-19T20:45:11.909Z,15.73
2019-05-19T20:46:11.815Z,15.68
2019-05-19T20:47:11.732Z,15.68
2019-05-19T20:48:11.640Z,15.65
2019-05-19T20:49:11.555Z,15.56
2019-05-19T20:50:11.467Z,15.58
2019-05-19T20:51:11.402Z,15.56
2019-05-19T20:52:11.301Z,15.59
2019-05-19T20:53:11.219Z,15.48
2019-05-19T20:54:11.142Z,15.48
2019-05-19T20:55:11.054Z,15.51
2019-05-19T20:56:10.975Z,15.52
2019-05-19T20:57:10.892Z,15.40
2019-05-19T20:58:10.793Z,15.50
2019-05-19T20:59:10.709Z,15.45
2019-05-19T21:00:10.659Z,15.47
2019-05-19T21:01:10.541Z,15.36
2019-05-19T21:02:10.458Z,15.36
2019-05-19T21:03:10.382Z,15.26
2019-05-19T21:04:10.344Z,15.29
2019-05-19T21:05:10.215Z,15.29
2019-05-19T21:06:10.147Z,15.25
2019-05-19T21:07:10.052Z,15.22
2019-05-19T21:08:09.967Z,15.19
2019-05-19T21:09:09.869Z,15.23
2019-05-19T21:10:09.798Z,15.15
2019-05-19T21:11:09.718Z,15.26
2019-05-19T21:12:09.626Z,15.14
2019-05-19T21:13:09.552Z,15.19
2019-05-19T21:14:09.446Z,15.23
2019-05-19T21:15:09.364Z,15.14
2019-05-19T21:16:09.267Z,15.15
2019-05-19T21:17:09.192Z,15.23
2019-05-19T21:18:09.114Z,15.12
2019-05-19T21:19:09.032Z,15.14
2019-05-19T21:20:08.934Z,15.04
2019-05-19T21:21:08.854Z,14.95
2019-05-19T21:22:08.770Z,14.90
2019-05-19T21:23:08.677Z,14.90
2019-05-19T21:24:08.587Z,14.96
2019-05-19T21:25:08.540Z,14.92
2019-05-19T21:26:08.425Z,14.89
2019-05-19T21:27:08.346Z,14.90
2019-05-19T21:28:08.266Z,14.83
2019-05-19T21:29:08.166Z,14.82
2019-05-19T21:30:08.084Z,14.85
2019-05-19T21:31:07.998Z,14.82
2019-05-19T21:32:07.920Z,14.78
2019-05-19T21:33:07.842Z,14.66
2019-05-19T21:34:07.764Z,14.70
2019-05-19T21:35:07.658Z,14.71
2019-05-19T21:36:07.624Z,14.70
2019-05-19T21:37:07.482Z,14.73
2019-05-19T21:38:07.409Z,14.63
2019-05-19T21:39:07.321Z,14.66
2019-05-19T21:40:07.233Z,14.59
2019-05-19T21:41:07.158Z,14.59
2019-05-19T21:42:07.067Z,14.58
2019-05-19T21:43:07.080Z,14.52
2019-05-19T21:44:06.900Z,14.45
2019-05-19T21:45:06.850Z,14.45
2019-05-19T21:46:06.750Z,14.44
2019-05-19T21:47:06.642Z,14.40
2019-05-19T21:48:06.578Z,14.36
2019-05-19T21:49:06.458Z,14.37
2019-05-19T21:50:06.403Z,14.41
2019-05-19T21:51:06.302Z,14.36
2019-05-19T21:52:06.208Z,14.33
2019-05-19T21:53:06.675Z,14.34
2019-05-19T21:54:06.043Z,14.41
2019-05-19T21:55:05.960Z,14.36
2019-05-19T21:56:05.899Z,14.26
2019-05-19T21:57:05.784Z,14.28
2019-05-19T21:58:05.695Z,14.23
2019-05-19T21:59:05.637Z,14.15
2019-05-19T22:00:05.525Z,14.23
2019-05-19T22:01:05.437Z,14.21
2019-05-19T22:02:05.382Z,14.22
2019-05-19T22:03:05.277Z,14.26
2019-05-19T22:04:05.193Z,14.28
2019-05-19T22:05:05.124Z,14.36
2019-05-19T22:06:05.012Z,14.40
2019-05-19T22:07:04.936Z,14.36
2019-05-19T22:08:04.848Z,14.46
2019-05-19T22:09:04.770Z,14.34
2019-05-19T22:10:04.679Z,14.27
2019-05-19T22:11:04.791Z,14.21
2019-05-19T22:12:04.509Z,14.30
2019-05-19T22:13:04.425Z,14.26
2019-05-19T22:14:04.323Z,14.22
2019-05-19T22:15:04.253Z,14.26
2019-05-19T22:16:12.922Z,14.26
2019-05-19T22:17:04.076Z,14.23
2019-05-19T22:18:03.998Z,14.28
2019-05-19T22:19:03.893Z,14.23
2019-05-19T22:20:03.813Z,14.30
2019-05-19T22:21:03.747Z,14.33
2019-05-19T22:22:03.656Z,14.31
2019-05-19T22:23:03.554Z,14.27
2019-05-19T22:24:03.483Z,14.22
2019-05-19T22:25:03.383Z,14.26
2019-05-19T22:26:03.308Z,14.26
2019-05-19T22:27:03.217Z,14.27
2019-05-19T22:28:03.136Z,14.31
2019-05-19T22:29:03.045Z,14.28
2019-05-19T22:30:02.959Z,14.26
2019-05-19T22:31:02.879Z,14.23
2019-05-19T22:32:02.793Z,14.12
2019-05-19T22:33:02.715Z,14.26
2019-05-19T22:34:02.618Z,14.18
2019-05-19T22:35:02.535Z,14.12
2019-05-19T22:36:02.433Z,14.05
2019-05-19T22:37:02.357Z,14.03
2019-05-19T22:38:02.267Z,13.90
2019-05-19T22:39:02.183Z,13.88
2019-05-19T22:40:02.273Z,13.94
2019-05-19T22:41:01.999Z,13.85
2019-05-19T22:42:01.985Z,13.82
2019-05-19T22:43:01.833Z,13.78
2019-05-19T22:44:01.755Z,13.83
2019-05-19T22:45:01.673Z,13.90
2019-05-19T22:46:01.575Z,13.96
2019-05-19T22:47:01.485Z,13.91
2019-05-19T22:48:01.406Z,13.93
2019-05-19T22:49:01.381Z,13.94
2019-05-19T22:50:01.263Z,13.80
2019-05-19T22:51:01.154Z,13.86
2019-05-19T22:52:01.065Z,13.75
2019-05-19T22:53:00.982Z,13.80
2019-05-19T22:54:00.904Z,13.79
2019-05-19T22:55:00.810Z,13.76
2019-05-19T22:56:00.747Z,13.72
2019-05-19T22:57:00.649Z,13.68
2019-05-19T22:58:00.566Z,13.64
2019-05-19T22:59:00.484Z,13.67
2019-05-19T23:00:01.359Z,13.65
2019-05-19T23:01:00.286Z,13.67
2019-05-19T23:02:00.204Z,13.60
2019-05-19T23:03:00.131Z,13.58
2019-05-19T23:04:00.041Z,13.58
2019-05-19T23:04:59.978Z,13.49
2019-05-19T23:05:59.882Z,13.43
2019-05-19T23:06:59.782Z,13.42
2019-05-19T23:07:59.700Z,13.53
2019-05-19T23:08:59.607Z,13.58
2019-05-19T23:09:59.625Z,13.47
2019-05-19T23:10:59.454Z,13.42
2019-05-19T23:11:59.359Z,13.42
2019-05-19T23:12:59.265Z,13.39
2019-05-19T23:13:59.162Z,13.35
2019-05-19T23:14:59.083Z,13.43
2019-05-19T23:15:59.000Z,13.39
2019-05-19T23:16:58.914Z,13.40
2019-05-19T23:17:58.817Z,13.40
2019-05-19T23:18:58.740Z,13.42
2019-05-19T23:19:58.697Z,13.36
2019-05-19T23:20:58.569Z,13.35
2019-05-19T23:21:58.486Z,13.36
2019-05-19T23:22:58.395Z,13.32
2019-05-19T23:23:58.302Z,13.20
2019-05-19T23:24:58.223Z,13.21
2019-05-19T23:25:58.147Z,13.13
2019-05-19T23:26:58.036Z,13.09
2019-05-19T23:27:58.000Z,13.05
2019-05-19T23:28:57.868Z,13.09
2019-05-19T23:29:57.857Z,13.09
2019-05-19T23:30:57.703Z,13.02
2019-05-19T23:32:06.756Z,13.17
2019-05-19T23:32:57.524Z,13.08
2019-05-19T23:33:58.369Z,13.09
2019-05-19T23:34:57.363Z,13.08
2019-05-19T23:35:57.263Z,13.09
2019-05-19T23:36:57.176Z,12.98
2019-05-19T23:37:57.090Z,12.95
2019-05-19T23:38:57.004Z,12.90
2019-05-19T23:39:56.923Z,12.93
2019-05-19T23:40:56.828Z,12.90
2019-05-19T23:41:56.768Z,12.81
2019-05-19T23:42:56.665Z,12.95
2019-05-19T23:43:56.595Z,12.88
2019-05-19T23:44:56.494Z,12.87
2019-05-19T23:45:56.400Z,12.91
2019-05-19T23:46:56.316Z,12.90
2019-05-19T23:47:56.239Z,12.79
2019-05-19T23:48:56.173Z,12.95
2019-05-19T23:49:56.051Z,12.84
2019-05-19T23:50:55.976Z,12.90
2019-05-19T23:51:55.870Z,12.88
2019-05-19T23:52:55.791Z,12.83
2019-05-19T23:53:55.702Z,12.84
2019-05-19T23:54:55.617Z,12.83
2019-05-19T23:55:55.529Z,12.84
2019-05-19T23:56:55.435Z,12.83
2019-05-19T23:57:55.366Z,12.76
2019-05-19T23:58:55.289Z,12.72
2019-05-19T23:59:55.190Z,12.76
